createdAt,value
2017-11-12T00:01:57.506Z,99.10
2017-11-12T00:04:25.425Z,99.00
2017-11-12T00:06:52.971Z,99.00
2017-11-12T00:09:20.544Z,99.20
2017-11-12T00:11:48.115Z,99.30
2017-11-12T00:14:15.647Z,99.30
2017-11-12T00:16:43.191Z,99.30
2017-11-12T00:19:10.719Z,99.10
2017-11-12T00:21:38.678Z,99.00
2017-11-12T00:24:06.224Z,99.00
2017-11-12T00:26:33.759Z,99.00
2017-11-12T00:29:01.301Z,99.20
2017-11-12T00:31:29.230Z,99.20
2017-11-12T00:33:56.779Z,99.20
2017-11-12T00:36:24.314Z,99.30
2017-11-12T00:38:51.859Z,99.30
2017-11-12T00:41:19.384Z,99.40
2017-11-12T00:43:47.342Z,99.30
2017-11-12T00:46:14.873Z,99.30
2017-11-12T00:48:42.423Z,99.20
2017-11-12T00:51:09.979Z,99.20
2017-11-12T00:53:37.903Z,99.30
2017-11-12T00:56:05.447Z,99.30
2017-11-12T00:58:32.969Z,99.40
2017-11-12T01:01:00.519Z,99.40
2017-11-12T01:03:28.042Z,99.40
2017-11-12T01:05:56.006Z,99.30
2017-11-12T01:08:23.541Z,99.30
2017-11-12T01:10:51.773Z,99.50
2017-11-12T01:13:19.721Z,99.70
2017-11-12T01:15:47.303Z,99.70
2017-11-12T01:18:14.846Z,99.60
2017-11-12T01:20:42.377Z,99.50
2017-11-12T01:23:10.314Z,99.20
2017-11-12T01:25:37.844Z,99.20
2017-11-12T01:28:05.434Z,99.40
2017-11-12T01:30:32.967Z,99.50
2017-11-12T01:33:00.893Z,99.40
2017-11-12T01:35:28.436Z,99.40
2017-11-12T01:37:55.960Z,99.50
2017-11-12T01:40:23.522Z,99.50
2017-11-12T01:42:51.061Z,99.50
2017-11-12T01:45:18.627Z,99.50
2017-11-12T01:47:46.161Z,99.30
2017-11-12T01:50:13.707Z,99.40
2017-11-12T01:52:41.243Z,99.50
2017-11-12T01:55:08.780Z,99.30
2017-11-12T01:57:36.326Z,99.30
2017-11-12T02:00:03.861Z,99.20
2017-11-12T02:02:31.406Z,99.10
2017-11-12T02:04:59.343Z,99.10
2017-11-12T02:07:26.878Z,99.10
2017-11-12T02:09:54.410Z,99.00
2017-11-12T02:12:21.986Z,98.90
2017-11-12T02:14:49.519Z,98.90
2017-11-12T02:17:17.065Z,98.70
2017-11-12T02:19:44.618Z,98.70
2017-11-12T02:22:12.540Z,98.80
2017-11-12T02:24:40.089Z,98.80
2017-11-12T02:27:07.618Z,98.90
2017-11-12T02:29:35.179Z,98.90
2017-11-12T02:32:02.711Z,99.00
2017-11-12T02:34:30.259Z,98.80
2017-11-12T02:36:58.190Z,98.60
2017-11-12T02:39:25.717Z,98.60
2017-11-12T02:41:53.278Z,98.70
2017-11-12T02:44:21.221Z,98.80
2017-11-12T02:46:48.774Z,98.80
2017-11-12T02:49:16.294Z,98.70
2017-11-12T02:51:43.836Z,98.80
2017-11-12T02:54:11.353Z,99.00
2017-11-12T02:56:38.935Z,99.10
2017-11-12T02:59:06.457Z,98.90
2017-11-12T03:01:33.977Z,99.00
2017-11-12T03:04:01.513Z,98.90
2017-11-12T03:06:29.042Z,99.00
2017-11-12T03:08:56.587Z,99.10
2017-11-12T03:11:24.125Z,99.20
2017-11-12T03:13:51.678Z,99.10
2017-11-12T03:16:19.209Z,99.00
2017-11-12T03:18:46.788Z,99.20
2017-11-12T03:21:14.319Z,99.20
2017-11-12T03:23:42.239Z,99.40
2017-11-12T03:26:09.779Z,99.30
2017-11-12T03:28:37.700Z,99.50
2017-11-12T03:31:05.249Z,99.50
2017-11-12T03:33:32.777Z,99.30
2017-11-12T03:36:00.324Z,99.30
2017-11-12T03:38:27.837Z,99.30
2017-11-12T03:40:55.794Z,99.50
2017-11-12T03:43:23.319Z,99.50
2017-11-12T03:45:50.859Z,99.30
2017-11-12T03:48:18.408Z,99.40
2017-11-12T03:50:46.042Z,99.50
2017-11-12T03:53:13.581Z,99.60
2017-11-12T03:55:41.498Z,99.50
2017-11-12T03:58:09.042Z,99.50
2017-11-12T04:00:36.604Z,99.50
2017-11-12T04:03:04.567Z,99.20
2017-11-12T04:05:32.095Z,99.20
2017-11-12T04:07:59.633Z,99.10
2017-11-12T04:10:27.562Z,99.30
2017-11-12T04:12:55.081Z,99.20
2017-11-12T04:15:23.020Z,99.10
2017-11-12T04:17:50.546Z,99.00
2017-11-12T04:20:18.118Z,99.30
2017-11-12T04:22:46.040Z,99.40
2017-11-12T04:25:13.567Z,99.40
2017-11-12T04:27:41.546Z,99.40
2017-11-12T04:30:09.469Z,99.40
2017-11-12T04:32:37.016Z,99.40
2017-11-12T04:35:04.550Z,99.60
2017-11-12T04:37:32.109Z,99.50
2017-11-12T04:39:59.638Z,99.50
2017-11-12T04:42:27.167Z,99.50
2017-11-12T04:44:55.101Z,99.40
2017-11-12T04:47:22.621Z,99.40
2017-11-12T04:49:50.157Z,99.50
2017-11-12T04:52:17.674Z,99.40
2017-11-12T04:54:45.611Z,99.40
2017-11-12T04:57:13.135Z,99.40
2017-11-12T04:59:40.698Z,99.50
2017-11-12T05:02:08.618Z,99.30
2017-11-12T05:04:36.154Z,99.30
2017-11-12T05:07:03.703Z,99.30
2017-11-12T05:09:31.225Z,99.10
2017-11-12T05:11:58.769Z,99.00
2017-11-12T05:14:26.695Z,99.10
2017-11-12T05:16:54.244Z,99.00
2017-11-12T05:19:21.778Z,99.10
2017-11-12T05:21:49.740Z,98.90
2017-11-12T05:24:17.262Z,98.90
2017-11-12T05:26:44.791Z,99.00
2017-11-12T05:29:12.748Z,99.00
2017-11-12T05:31:40.318Z,99.00
2017-11-12T05:34:07.877Z,99.20
2017-11-12T05:36:35.453Z,99.10
2017-11-12T05:39:03.043Z,99.10
2017-11-12T05:41:30.567Z,99.10
2017-11-12T05:43:58.148Z,99.10
2017-11-12T05:46:25.674Z,99.30
2017-11-12T05:48:53.216Z,99.20
2017-11-12T05:51:20.764Z,99.10
2017-11-12T05:53:48.276Z,99.10
2017-11-12T05:56:15.820Z,99.10
2017-11-12T05:58:43.343Z,99.10
2017-11-12T06:01:11.269Z,99.10
2017-11-12T06:03:38.788Z,99.10
2017-11-12T06:06:06.349Z,98.90
2017-11-12T06:08:33.890Z,98.80
2017-11-12T06:11:01.418Z,98.80
2017-11-12T06:13:29.354Z,98.80
2017-11-12T06:15:56.883Z,98.80
2017-11-12T06:18:24.432Z,98.90
2017-11-12T06:20:52.346Z,99.00
2017-11-12T06:23:19.898Z,99.00
2017-11-12T06:25:47.427Z,99.00
2017-11-12T06:28:14.994Z,99.00
2017-11-12T06:30:42.510Z,99.10
2017-11-12T06:33:10.031Z,99.20
2017-11-12T06:35:37.574Z,99.20
2017-11-12T06:38:05.095Z,99.20
2017-11-12T06:40:33.423Z,99.20
2017-11-12T06:43:00.984Z,99.10
2017-11-12T06:45:28.921Z,99.10
2017-11-12T06:47:56.449Z,99.10
2017-11-12T06:50:24.013Z,99.20
2017-11-12T06:52:51.537Z,99.20
2017-11-12T06:55:19.077Z,99.00
2017-11-12T06:57:46.654Z,98.80
2017-11-12T07:00:14.178Z,99.00
2017-11-12T07:02:42.128Z,99.10
2017-11-12T07:05:09.654Z,99.10
2017-11-12T07:07:37.200Z,99.00
2017-11-12T07:10:04.717Z,99.10
2017-11-12T07:12:32.283Z,98.90
2017-11-12T07:14:59.803Z,99.00
2017-11-12T07:17:27.329Z,99.00
2017-11-12T07:19:54.877Z,98.80
2017-11-12T07:22:22.394Z,98.90
2017-11-12T07:24:49.958Z,99.10
2017-11-12T07:27:17.500Z,99.10
2017-11-12T07:29:45.066Z,99.10
2017-11-12T07:32:12.596Z,99.10
2017-11-12T07:34:40.173Z,99.00
2017-11-12T07:37:07.702Z,99.10
2017-11-12T07:39:35.230Z,99.00
2017-11-12T07:42:03.168Z,98.80
2017-11-12T07:44:30.690Z,98.80
2017-11-12T07:46:58.243Z,98.90
2017-11-12T07:49:25.775Z,98.90
2017-11-12T07:51:53.314Z,98.70
2017-11-12T07:54:21.233Z,98.90
2017-11-12T07:56:48.797Z,98.90
2017-11-12T07:59:16.319Z,99.10
2017-11-12T08:01:44.233Z,99.20
2017-11-12T08:04:11.812Z,99.20
2017-11-12T08:06:39.347Z,99.10
2017-11-12T08:09:07.289Z,98.90
2017-11-12T08:11:34.814Z,98.90
2017-11-12T08:14:02.358Z,98.90
2017-11-12T08:16:29.882Z,98.90
2017-11-12T08:18:57.467Z,99.00
2017-11-12T08:21:24.998Z,98.90
2017-11-12T08:23:52.542Z,98.90
2017-11-12T08:26:20.083Z,99.00
2017-11-12T08:28:47.600Z,98.70
2017-11-12T08:31:15.536Z,98.90
2017-11-12T08:33:43.059Z,98.90
2017-11-12T08:36:10.985Z,99.20
2017-11-12T08:38:38.510Z,99.20
2017-11-12T08:41:06.571Z,99.30
2017-11-12T08:43:34.101Z,99.30
2017-11-12T08:46:01.637Z,99.20
2017-11-12T08:48:29.175Z,99.20
2017-11-12T08:50:56.697Z,99.30
2017-11-12T08:53:24.242Z,99.20
2017-11-12T08:55:52.167Z,99.10
2017-11-12T08:58:19.705Z,99.10
2017-11-12T09:00:47.633Z,99.20
2017-11-12T09:03:15.196Z,99.20
2017-11-12T09:05:42.714Z,99.30
2017-11-12T09:08:10.631Z,99.20
2017-11-12T09:10:38.179Z,99.20
2017-11-12T09:13:06.099Z,99.10
2017-11-12T09:15:33.635Z,99.10
2017-11-12T09:18:01.172Z,98.90
2017-11-12T09:20:28.709Z,99.00
2017-11-12T09:22:56.238Z,99.00
2017-11-12T09:25:24.189Z,99.00
2017-11-12T09:27:51.719Z,99.00
2017-11-12T09:30:19.240Z,99.20
2017-11-12T09:32:46.915Z,99.00
2017-11-12T09:35:14.476Z,99.30
2017-11-12T09:37:42.014Z,99.00
2017-11-12T09:40:09.530Z,99.10
2017-11-12T09:42:37.077Z,99.30
2017-11-12T09:45:04.596Z,99.30
2017-11-12T09:47:32.530Z,99.20
2017-11-12T09:50:00.064Z,99.20
2017-11-12T09:52:27.666Z,98.70
2017-11-12T09:54:55.182Z,98.80
2017-11-12T09:57:22.731Z,98.40
2017-11-12T09:59:50.247Z,98.30
2017-11-12T10:02:17.790Z,98.50
2017-11-12T10:04:45.716Z,98.00
2017-11-12T10:07:13.254Z,98.00
2017-11-12T10:09:41.174Z,98.60
2017-11-12T10:12:08.718Z,98.60
2017-11-12T10:14:36.238Z,98.70
2017-11-12T10:17:03.776Z,98.90
2017-11-12T10:19:31.293Z,98.90
2017-11-12T10:21:58.821Z,98.50
2017-11-12T10:24:27.183Z,98.50
2017-11-12T10:26:55.111Z,97.10
2017-11-12T10:29:22.638Z,97.10
2017-11-12T10:31:50.540Z,97.80
2017-11-12T10:34:18.080Z,97.80
2017-11-12T10:36:45.992Z,97.90
2017-11-12T10:39:13.531Z,97.90
2017-11-12T10:41:41.474Z,97.60
2017-11-12T10:44:09.017Z,97.60
2017-11-12T10:46:36.538Z,98.20
2017-11-12T10:49:04.073Z,98.30
2017-11-12T10:51:31.597Z,98.20
2017-11-12T10:53:59.146Z,97.90
2017-11-12T10:56:26.663Z,97.40
2017-11-12T10:58:54.207Z,97.70
2017-11-12T11:01:22.218Z,98.10
2017-11-12T11:03:49.749Z,98.10
2017-11-12T11:06:17.275Z,98.20
2017-11-12T11:08:44.859Z,98.20
2017-11-12T11:11:12.388Z,98.40
2017-11-12T11:13:40.321Z,98.50
2017-11-12T11:16:07.839Z,98.50
2017-11-12T11:18:35.372Z,98.10
2017-11-12T11:21:02.907Z,98.30
2017-11-12T11:23:30.447Z,98.40
2017-11-12T11:25:58.363Z,98.40
2017-11-12T11:28:25.897Z,98.40
2017-11-12T11:30:53.435Z,98.50
2017-11-12T11:33:21.027Z,98.70
2017-11-12T11:35:48.567Z,98.10
2017-11-12T11:38:16.127Z,98.20
2017-11-12T11:40:43.642Z,98.50
2017-11-12T11:43:11.186Z,98.40
2017-11-12T11:45:38.720Z,98.10
2017-11-12T11:48:06.395Z,98.30
2017-11-12T11:50:33.920Z,98.50
2017-11-12T11:53:01.453Z,98.70
2017-11-12T11:55:28.991Z,98.60
2017-11-12T11:57:56.916Z,98.90
2017-11-12T12:00:24.460Z,98.90
2017-11-12T12:02:51.976Z,98.80
2017-11-12T12:05:19.514Z,98.30
2017-11-12T12:07:47.034Z,98.80
2017-11-12T12:10:14.583Z,99.40
2017-11-12T12:12:42.108Z,99.00
2017-11-12T12:15:09.652Z,98.90
2017-11-12T12:17:37.568Z,99.10
2017-11-12T12:20:05.114Z,99.10
2017-11-12T12:22:33.046Z,98.90
2017-11-12T12:25:00.596Z,98.90
2017-11-12T12:27:28.127Z,98.80
2017-11-12T12:29:55.665Z,98.90
2017-11-12T12:32:23.190Z,98.80
2017-11-12T12:34:50.726Z,99.10
2017-11-12T12:37:18.251Z,99.00
2017-11-12T12:39:45.791Z,98.80
2017-11-12T12:42:13.705Z,99.10
2017-11-12T12:44:41.269Z,99.10
2017-11-12T12:47:08.848Z,99.20
2017-11-12T12:49:36.409Z,99.10
2017-11-12T12:52:03.946Z,99.20
2017-11-12T12:54:31.490Z,99.20
2017-11-12T12:56:59.026Z,99.10
2017-11-12T12:59:26.588Z,99.00
2017-11-12T13:01:54.117Z,99.00
2017-11-12T13:04:21.659Z,98.90
2017-11-12T13:06:49.184Z,99.00
2017-11-12T13:09:17.117Z,98.60
2017-11-12T13:11:44.643Z,98.60
2017-11-12T13:14:12.187Z,98.90
2017-11-12T13:16:39.725Z,98.60
2017-11-12T13:19:07.300Z,98.40
2017-11-12T13:21:34.849Z,97.80
2017-11-12T13:24:02.372Z,97.70
2017-11-12T13:26:29.914Z,97.90
2017-11-12T13:28:57.436Z,98.10
2017-11-12T13:31:24.989Z,97.20
2017-11-12T13:33:52.923Z,98.50
2017-11-12T13:36:20.473Z,98.50
2017-11-12T13:38:48.006Z,99.00
2017-11-12T13:41:15.550Z,98.40
2017-11-12T13:43:43.084Z,97.20
2017-11-12T13:46:10.621Z,96.60
2017-11-12T13:48:38.155Z,96.50
2017-11-12T13:51:05.714Z,96.10
2017-11-12T13:53:33.247Z,96.00
2017-11-12T13:56:00.796Z,96.30
2017-11-12T13:58:28.319Z,96.70
2017-11-12T14:00:55.868Z,96.40
2017-11-12T14:03:23.789Z,96.20
2017-11-12T14:05:51.335Z,96.30
2017-11-12T14:08:19.262Z,96.90
2017-11-12T14:10:46.798Z,96.90
2017-11-12T14:13:14.318Z,97.00
2017-11-12T14:15:41.865Z,97.20
2017-11-12T14:18:09.618Z,96.60
2017-11-12T14:20:37.166Z,96.60
2017-11-12T14:23:05.102Z,97.30
2017-11-12T14:25:32.675Z,97.30
2017-11-12T14:28:00.206Z,97.00
2017-11-12T14:30:27.757Z,97.10
2017-11-12T14:32:55.674Z,92.90
2017-11-12T14:35:23.207Z,93.00
2017-11-12T14:37:51.129Z,95.40
2017-11-12T14:40:18.655Z,95.40
2017-11-12T14:42:46.191Z,95.90
2017-11-12T14:45:13.715Z,96.20
2017-11-12T14:47:41.747Z,96.60
2017-11-12T14:50:09.265Z,96.60
2017-11-12T14:52:37.275Z,97.70
2017-11-12T14:55:04.792Z,97.70
2017-11-12T14:57:32.327Z,98.00
2017-11-12T14:59:59.839Z,98.40
2017-11-12T15:02:27.365Z,97.90
2017-11-12T15:04:54.907Z,97.40
2017-11-12T15:07:22.825Z,98.00
2017-11-12T15:09:50.342Z,98.00
2017-11-12T15:12:18.288Z,98.30
2017-11-12T15:14:45.808Z,98.30
2017-11-12T15:17:13.750Z,98.40
2017-11-12T15:19:41.276Z,98.40
2017-11-12T15:22:08.816Z,98.50
2017-11-12T15:24:36.344Z,98.40
2017-11-12T15:27:03.894Z,98.70
2017-11-12T15:29:31.432Z,98.90
2017-11-12T15:31:59.366Z,98.80
2017-11-12T15:34:26.892Z,98.80
2017-11-12T15:36:54.828Z,98.70
2017-11-12T15:39:22.364Z,98.70
2017-11-12T15:41:49.916Z,98.90
2017-11-12T15:44:17.839Z,99.10
2017-11-12T15:46:45.374Z,99.10
2017-11-12T15:49:13.347Z,99.50
2017-11-12T15:54:43.978Z,99.40
2017-11-12T15:57:11.662Z,99.50
2017-11-12T15:59:40.292Z,99.30
2017-11-12T16:02:08.370Z,99.60
2017-11-12T16:04:36.853Z,99.50
2017-11-12T16:07:04.621Z,99.20
2017-11-12T16:09:32.235Z,99.10
2017-11-12T16:11:59.865Z,99.60
2017-11-12T16:14:28.183Z,99.50
2017-11-12T16:16:55.900Z,99.60
2017-11-12T16:19:23.584Z,99.50
2017-11-12T16:21:51.676Z,99.40
2017-11-12T16:24:19.861Z,99.50
2017-11-12T16:26:47.486Z,99.50
2017-11-12T16:29:15.109Z,99.30
2017-11-12T16:31:44.542Z,99.50
2017-11-12T17:35:54.428Z,99.50
2017-11-12T17:38:22.373Z,99.90
2017-11-12T17:40:50.718Z,99.90
2017-11-12T17:43:18.270Z,99.90
2017-11-12T17:45:45.786Z,99.80
2017-11-12T17:48:13.324Z,99.50
2017-11-12T17:50:40.840Z,99.30
2017-11-12T17:53:08.404Z,99.40
2017-11-12T17:55:35.934Z,99.40
2017-11-12T17:58:03.874Z,99.00
2017-11-12T18:00:31.388Z,99.00
2017-11-12T18:02:58.932Z,99.20
2017-11-12T18:05:26.499Z,99.00
2017-11-12T18:07:54.136Z,99.10
2017-11-12T18:10:21.742Z,99.20
2017-11-12T18:12:49.279Z,99.20
2017-11-12T18:15:17.238Z,99.40
2017-11-12T18:17:44.780Z,99.40
2017-11-12T18:20:12.329Z,99.30
2017-11-12T18:22:39.887Z,99.20
2017-11-12T18:25:07.430Z,99.30
2017-11-12T18:27:34.936Z,99.00
2017-11-12T18:30:02.506Z,99.10
2017-11-12T18:32:30.047Z,99.00
2017-11-12T18:34:57.609Z,99.20
2017-11-12T18:37:25.145Z,99.20
2017-11-12T18:39:52.710Z,99.40
2017-11-12T18:42:20.639Z,99.30
2017-11-12T18:44:48.208Z,99.30
2017-11-12T18:47:15.746Z,99.60
2017-11-12T18:49:43.281Z,99.60
2017-11-12T18:52:11.192Z,99.20
2017-11-12T18:54:38.732Z,99.20
2017-11-12T19:00:05.325Z,99.30
2017-11-12T19:02:38.456Z,99.60
2017-11-12T19:05:11.579Z,99.40
2017-11-12T19:07:49.817Z,99.40
2017-11-12T19:10:17.354Z,99.50
2017-11-12T19:12:44.898Z,99.20
2017-11-12T19:15:12.456Z,99.40
2017-11-12T19:17:51.693Z,99.50
2017-11-12T19:23:35.544Z,99.50
2017-11-12T19:26:17.966Z,99.50
2017-11-12T19:28:56.204Z,99.30
2017-11-12T19:31:23.751Z,99.50
2017-11-12T19:33:51.324Z,99.20
2017-11-12T19:36:18.888Z,99.40
2017-11-12T19:38:46.437Z,99.50
2017-11-12T19:41:14.379Z,99.20
2017-11-12T19:43:41.905Z,99.20
2017-11-12T19:46:09.465Z,99.30
2017-11-12T19:48:36.996Z,99.10
2017-11-12T19:51:04.925Z,99.00
2017-11-12T19:53:32.443Z,99.00
2017-11-12T19:55:59.990Z,98.60
2017-11-12T19:58:27.532Z,98.60
2017-11-12T20:00:55.109Z,99.10
2017-11-12T20:03:22.633Z,98.80
2017-11-12T20:05:50.572Z,98.50
2017-11-12T20:08:18.088Z,98.50
2017-11-12T20:10:45.647Z,98.80
2017-11-12T20:13:13.169Z,98.80
2017-11-12T20:15:41.114Z,98.80
2017-11-12T20:18:08.640Z,98.80
2017-11-12T20:20:36.190Z,99.10
2017-11-12T20:23:03.737Z,98.90
2017-11-12T20:25:31.366Z,99.00
2017-11-12T20:27:58.893Z,99.00
2017-11-12T20:30:26.438Z,98.60
2017-11-12T20:32:53.966Z,98.60
2017-11-12T20:35:21.521Z,98.50
2017-11-12T20:37:49.443Z,98.30
2017-11-12T20:40:16.988Z,98.30
2017-11-12T20:42:44.539Z,98.40
2017-11-12T20:45:12.075Z,98.70
2017-11-12T20:47:39.612Z,98.50
2017-11-12T20:50:07.130Z,98.90
2017-11-12T20:52:34.667Z,98.90
2017-11-12T20:55:02.584Z,98.80
2017-11-12T20:57:30.118Z,98.80
2017-11-12T20:59:57.633Z,99.00
2017-11-12T21:02:25.582Z,98.80
2017-11-12T21:05:07.985Z,98.80
2017-11-12T21:07:35.549Z,98.80
2017-11-12T21:10:03.480Z,98.80
2017-11-12T21:12:31.016Z,98.80
2017-11-12T21:14:58.574Z,98.80
2017-11-12T21:17:26.089Z,99.20
2017-11-12T21:22:54.931Z,98.90
2017-11-12T21:25:22.477Z,99.00
2017-11-12T21:27:50.011Z,98.70
2017-11-12T21:30:31.243Z,99.00
2017-11-12T21:32:59.236Z,99.10
2017-11-12T21:35:26.841Z,99.10
2017-11-12T21:37:57.366Z,98.90
2017-11-12T21:40:24.907Z,99.10
2017-11-12T21:42:52.435Z,99.10
2017-11-12T21:45:20.005Z,99.30
2017-11-12T21:47:47.529Z,99.00
2017-11-12T21:50:15.449Z,99.20
2017-11-12T21:52:42.987Z,99.20
2017-11-12T21:55:10.517Z,99.20
2017-11-12T21:57:38.057Z,99.00
2017-11-12T22:00:05.578Z,98.80
2017-11-12T22:02:33.509Z,98.60
2017-11-12T22:05:01.028Z,98.50
2017-11-12T22:07:28.607Z,98.50
2017-11-12T22:09:56.139Z,98.50
2017-11-12T22:12:23.674Z,98.60
2017-11-12T22:14:51.218Z,98.80
2017-11-12T22:17:18.775Z,99.00
2017-11-12T22:19:46.701Z,98.90
2017-11-12T22:22:14.226Z,98.90
2017-11-12T22:24:41.764Z,98.90
2017-11-12T22:27:09.684Z,98.90
2017-11-12T22:29:37.258Z,98.90
2017-11-12T22:32:05.179Z,99.10
2017-11-12T22:34:32.723Z,99.10
2017-11-12T22:37:00.631Z,98.90
2017-11-12T22:39:28.219Z,98.90
2017-11-12T22:41:55.750Z,99.10
2017-11-12T22:44:23.310Z,99.20
2017-11-12T22:46:50.834Z,98.90
2017-11-12T22:49:18.410Z,98.80
2017-11-12T22:51:45.936Z,98.90
2017-11-12T22:54:13.867Z,98.90
2017-11-12T22:56:41.408Z,98.90
2017-11-12T22:59:08.925Z,98.80
2017-11-12T23:01:36.452Z,98.80
2017-11-12T23:04:03.969Z,98.80
2017-11-12T23:06:31.502Z,98.90
2017-11-12T23:08:59.035Z,98.90
2017-11-12T23:11:26.586Z,98.80
2017-11-12T23:13:54.127Z,98.80
2017-11-12T23:16:21.695Z,98.70
2017-11-12T23:18:49.224Z,98.90
2017-11-12T23:21:16.779Z,98.90
2017-11-12T23:23:44.312Z,98.70
2017-11-12T23:26:12.254Z,98.70
2017-11-12T23:28:39.805Z,98.70
2017-11-12T23:31:07.731Z,98.90
2017-11-12T23:33:35.269Z,98.90
2017-11-12T23:36:02.782Z,98.70
2017-11-12T23:38:30.352Z,98.50
2017-11-12T23:40:58.797Z,98.70
2017-11-12T23:43:26.345Z,98.70
2017-11-12T23:45:53.881Z,98.60
2017-11-12T23:48:21.419Z,98.70
2017-11-12T23:50:48.971Z,98.70
2017-11-12T23:53:16.494Z,98.90
2017-11-12T23:55:44.038Z,98.80
2017-11-12T23:58:11.955Z,99.00
